createdAt,value
2023-02-17T00:01:38.892Z,8.40
2023-02-17T00:04:06.962Z,8.40
2023-02-17T00:06:34.935Z,8.40
2023-02-17T00:09:03.515Z,8.50
2023-02-17T00:11:31.632Z,8.40
2023-02-17T00:14:00.249Z,8.40
2023-02-17T00:16:30.284Z,8.40
2023-02-17T00:19:00.938Z,8.40
2023-02-17T00:21:31.830Z,8.40
2023-02-17T00:24:01.029Z,8.50
2023-02-17T00:26:29.484Z,8.40
2023-02-17T00:28:59.025Z,8.40
2023-02-17T00:31:27.095Z,8.40
2023-02-17T00:33:57.439Z,8.50
2023-02-17T00:36:27.332Z,8.40
2023-02-17T00:38:57.640Z,8.40
2023-02-17T00:41:29.086Z,8.40
2023-02-17T00:43:59.480Z,8.50
2023-02-17T00:46:27.964Z,8.50
2023-02-17T00:48:57.900Z,8.50
2023-02-17T00:51:26.774Z,8.50
2023-02-17T00:53:55.292Z,8.50
2023-02-17T00:56:23.236Z,8.60
2023-02-17T00:58:51.172Z,8.60
2023-02-17T01:01:19.280Z,8.50
2023-02-17T01:03:47.256Z,8.50
2023-02-17T01:06:26.038Z,8.50
2023-02-17T01:08:54.827Z,8.60
2023-02-17T01:11:26.529Z,8.60
2023-02-17T01:13:55.612Z,8.60
2023-02-17T01:16:27.383Z,8.60
2023-02-17T01:18:56.300Z,8.60
2023-02-17T01:21:30.064Z,8.60
2023-02-17T01:24:00.554Z,8.60
2023-02-17T01:26:32.289Z,8.70
2023-02-17T01:29:03.077Z,8.70
2023-02-17T01:31:31.360Z,8.70
2023-02-17T01:34:03.208Z,8.50
2023-02-17T01:36:33.423Z,8.70
2023-02-17T01:39:01.512Z,8.70
2023-02-17T01:41:30.753Z,8.70
2023-02-17T01:44:21.712Z,8.70
2023-02-17T01:46:52.149Z,8.90
2023-02-17T01:49:29.732Z,8.70
2023-02-17T01:52:08.476Z,8.80
2023-02-17T01:54:42.184Z,8.80
2023-02-17T01:57:12.501Z,8.70
2023-02-17T01:59:42.211Z,8.80
2023-02-17T02:02:11.126Z,8.80
2023-02-17T02:04:43.121Z,8.80
2023-02-17T02:07:18.582Z,8.80
2023-02-17T02:09:51.728Z,8.80
2023-02-17T02:12:23.807Z,8.80
2023-02-17T02:14:52.732Z,8.80
2023-02-17T02:17:34.533Z,8.80
2023-02-17T02:20:41.164Z,8.80
2023-02-17T02:23:32.110Z,8.80
2023-02-17T02:26:34.114Z,8.80
2023-02-17T02:29:28.588Z,8.80
2023-02-17T02:32:11.336Z,8.80
2023-02-17T02:34:47.398Z,8.80
2023-02-17T02:37:20.191Z,8.80
2023-02-17T02:39:53.719Z,8.90
2023-02-17T02:42:25.394Z,8.80
2023-02-17T02:44:53.437Z,8.90
2023-02-17T02:47:46.481Z,8.90
2023-02-17T02:50:32.652Z,8.90
2023-02-17T02:53:19.595Z,8.90
2023-02-17T02:55:58.657Z,8.90
2023-02-17T02:58:38.491Z,8.90
2023-02-17T03:01:18.482Z,9.00
2023-02-17T03:03:59.488Z,9.00
2023-02-17T03:06:36.635Z,9.00
2023-02-17T03:09:11.883Z,9.00
2023-02-17T03:11:41.242Z,9.00
2023-02-17T03:14:12.816Z,9.10
2023-02-17T03:16:43.250Z,9.00
2023-02-17T03:19:13.699Z,9.10
2023-02-17T03:21:49.732Z,9.00
2023-02-17T03:24:18.367Z,9.10
2023-02-17T03:26:46.731Z,9.10
2023-02-17T03:29:15.399Z,9.10
2023-02-17T03:31:43.894Z,9.10
2023-02-17T03:34:11.998Z,9.10
2023-02-17T03:36:40.011Z,9.10
2023-02-17T03:39:09.454Z,9.10
2023-02-17T03:41:37.660Z,9.10
2023-02-17T03:44:06.048Z,9.20
2023-02-17T03:46:34.294Z,9.10
2023-02-17T03:49:02.347Z,9.10
2023-02-17T03:51:30.304Z,9.10
2023-02-17T03:53:58.253Z,9.10
2023-02-17T03:56:27.621Z,9.10
2023-02-17T03:58:56.289Z,9.20
2023-02-17T04:01:24.486Z,9.10
2023-02-17T04:03:52.577Z,9.10
2023-02-17T04:06:20.702Z,9.10
2023-02-17T04:08:48.814Z,9.10
2023-02-17T04:11:18.511Z,9.10
2023-02-17T04:13:48.077Z,9.10
2023-02-17T04:16:16.044Z,9.10
2023-02-17T04:18:44.117Z,9.20
2023-02-17T04:21:12.162Z,9.20
2023-02-17T04:23:40.204Z,9.10
2023-02-17T04:26:09.527Z,9.20
2023-02-17T04:28:40.388Z,9.10
2023-02-17T04:31:10.227Z,9.10
2023-02-17T04:33:38.879Z,9.20
2023-02-17T04:36:07.693Z,9.20
2023-02-17T04:38:36.363Z,9.20
2023-02-17T04:41:04.908Z,9.20
2023-02-17T04:43:32.966Z,9.20
2023-02-17T04:46:01.029Z,9.20
2023-02-17T04:48:30.584Z,9.20
2023-02-17T04:50:58.756Z,9.20
2023-02-17T04:53:26.757Z,9.20
2023-02-17T04:55:55.075Z,9.30
2023-02-17T04:58:23.142Z,9.20
2023-02-17T05:00:52.440Z,9.30
2023-02-17T05:03:20.951Z,9.20
2023-02-17T05:05:50.875Z,9.30
2023-02-17T05:08:19.339Z,9.30
2023-02-17T05:10:47.428Z,9.10
2023-02-17T05:13:15.400Z,9.20
2023-02-17T05:15:44.764Z,9.20
2023-02-17T05:18:12.883Z,9.30
2023-02-17T05:20:41.384Z,9.30
2023-02-17T05:23:10.701Z,9.30
2023-02-17T05:25:40.808Z,9.30
2023-02-17T05:28:08.733Z,9.30
2023-02-17T05:30:36.857Z,9.30
2023-02-17T05:33:04.981Z,9.30
2023-02-17T05:35:35.233Z,9.30
2023-02-17T05:38:03.254Z,9.30
2023-02-17T05:40:32.762Z,9.30
2023-02-17T05:43:00.829Z,9.30
2023-02-17T05:45:28.797Z,9.40
2023-02-17T05:47:56.714Z,9.40
2023-02-17T05:50:24.751Z,9.40
2023-02-17T05:52:52.708Z,9.40
2023-02-17T05:55:22.150Z,9.50
2023-02-17T05:57:53.941Z,9.30
2023-02-17T06:00:22.443Z,9.40
2023-02-17T06:02:50.445Z,9.50
2023-02-17T06:05:18.710Z,9.40
2023-02-17T06:07:46.873Z,9.40
2023-02-17T06:10:15.033Z,9.40
2023-02-17T06:12:42.989Z,10.50
2023-02-17T06:15:12.616Z,10.90
2023-02-17T06:17:40.643Z,9.50
2023-02-17T06:20:11.016Z,9.50
2023-02-17T06:22:39.056Z,9.50
2023-02-17T06:25:07.954Z,9.60
2023-02-17T06:27:36.281Z,9.60
2023-02-17T06:30:05.433Z,9.60
2023-02-17T06:32:35.228Z,9.60
2023-02-17T06:35:03.496Z,9.60
2023-02-17T06:37:31.438Z,9.60
2023-02-17T06:39:59.405Z,9.60
2023-02-17T06:42:27.557Z,9.70
2023-02-17T06:44:55.560Z,9.70
2023-02-17T06:47:23.571Z,9.80
2023-02-17T06:49:52.995Z,9.80
2023-02-17T06:52:20.970Z,9.80
2023-02-17T06:54:49.205Z,9.80
2023-02-17T06:57:17.924Z,9.90
2023-02-17T06:59:46.401Z,9.90
2023-02-17T07:02:15.688Z,9.90
2023-02-17T07:04:44.648Z,9.90
2023-02-17T07:07:14.036Z,10.00
2023-02-17T07:09:43.524Z,10.00
2023-02-17T07:12:11.447Z,10.00
2023-02-17T07:14:39.620Z,10.10
2023-02-17T07:17:07.695Z,10.10
2023-02-17T07:19:35.926Z,10.10
2023-02-17T07:22:03.875Z,10.10
2023-02-17T07:24:33.981Z,10.10
2023-02-17T07:27:02.162Z,10.20
2023-02-17T07:29:30.153Z,10.20
2023-02-17T07:31:58.976Z,10.20
2023-02-17T07:34:27.214Z,10.20
2023-02-17T07:36:55.165Z,10.30
2023-02-17T07:39:23.219Z,10.20
2023-02-17T07:41:52.892Z,10.20
2023-02-17T07:44:21.233Z,10.30
2023-02-17T07:46:49.473Z,10.30
2023-02-17T07:49:17.796Z,10.30
2023-02-17T07:51:46.052Z,10.20
2023-02-17T07:54:14.212Z,10.20
2023-02-17T07:56:42.323Z,10.20
2023-02-17T07:59:13.166Z,10.30
2023-02-17T08:04:09.941Z,10.30
2023-02-17T08:06:41.375Z,10.30
2023-02-17T08:09:29.282Z,8.40
2023-02-17T08:12:15.132Z,12.50
2023-02-17T08:14:44.454Z,9.90
2023-02-17T08:17:12.433Z,10.30
2023-02-17T08:19:48.078Z,10.20
2023-02-17T08:22:17.629Z,10.30
2023-02-17T08:24:46.540Z,10.30
2023-02-17T08:27:16.066Z,11.30
2023-02-17T08:29:45.999Z,10.30
2023-02-17T08:32:15.582Z,10.30
2023-02-17T08:34:43.926Z,10.30
2023-02-17T08:37:12.808Z,10.30
2023-02-17T08:39:41.003Z,10.30
2023-02-17T08:42:09.589Z,10.30
2023-02-17T08:44:38.903Z,10.30
2023-02-17T08:47:10.427Z,10.30
2023-02-17T08:49:38.483Z,12.00
2023-02-17T08:52:06.868Z,10.30
2023-02-17T08:54:35.100Z,10.30
2023-02-17T08:57:03.270Z,10.40
2023-02-17T08:59:31.988Z,10.50
2023-02-17T09:04:30.365Z,10.50
2023-02-17T09:06:59.692Z,10.50
2023-02-17T09:09:29.204Z,10.50
2023-02-17T09:11:59.300Z,10.60
2023-02-17T09:14:27.792Z,10.60
2023-02-17T09:16:56.833Z,10.60
2023-02-17T09:19:26.172Z,10.70
2023-02-17T09:21:55.600Z,10.70
2023-02-17T09:24:23.701Z,10.70
2023-02-17T09:26:51.741Z,10.70
2023-02-17T09:29:20.076Z,10.70
2023-02-17T09:31:48.353Z,10.70
2023-02-17T09:34:16.944Z,10.50
2023-02-17T09:36:45.511Z,10.80
2023-02-17T09:39:15.146Z,10.80
2023-02-17T09:41:48.416Z,10.80
2023-02-17T09:44:23.265Z,10.80
2023-02-17T09:47:02.533Z,10.90
2023-02-17T09:49:40.063Z,10.80
2023-02-17T09:52:14.360Z,10.90
2023-02-17T09:55:00.368Z,10.90
2023-02-17T09:57:32.725Z,10.90
2023-02-17T10:00:10.544Z,10.90
2023-02-17T10:02:48.194Z,11.00
2023-02-17T10:05:23.700Z,11.00
2023-02-17T10:07:57.290Z,11.00
2023-02-17T10:10:32.783Z,10.90
2023-02-17T10:13:03.286Z,10.90
2023-02-17T10:15:37.037Z,10.90
2023-02-17T10:18:13.309Z,10.90
2023-02-17T10:20:46.313Z,10.90
2023-02-17T10:23:19.966Z,10.90
2023-02-17T10:26:09.873Z,10.90
2023-02-17T10:28:50.310Z,11.00
2023-02-17T10:31:34.913Z,11.00
2023-02-17T10:34:05.485Z,11.30
2023-02-17T10:36:52.104Z,11.20
2023-02-17T10:39:47.451Z,11.50
2023-02-17T10:42:23.499Z,11.50
2023-02-17T10:44:54.219Z,11.60
2023-02-17T10:47:23.321Z,11.60
2023-02-17T10:49:54.049Z,11.60
2023-02-17T10:52:25.037Z,11.70
2023-02-17T10:54:59.821Z,11.80
2023-02-17T10:57:34.145Z,11.70
2023-02-17T11:00:02.448Z,11.80
2023-02-17T11:02:38.207Z,11.90
2023-02-17T11:05:07.352Z,11.90
2023-02-17T11:07:38.536Z,12.00
2023-02-17T11:10:24.427Z,12.10
2023-02-17T11:12:55.841Z,12.20
2023-02-17T11:15:29.901Z,12.30
2023-02-17T11:18:00.711Z,12.40
2023-02-17T11:20:36.622Z,12.50
2023-02-17T11:23:21.958Z,12.60
2023-02-17T11:26:02.275Z,12.60
2023-02-17T11:28:31.682Z,12.70
2023-02-17T11:31:03.002Z,12.70
2023-02-17T11:33:35.546Z,12.90
2023-02-17T11:36:06.077Z,13.10
2023-02-17T11:38:44.844Z,13.10
2023-02-17T11:43:54.171Z,13.30
2023-02-17T11:46:34.884Z,13.20
2023-02-17T11:49:26.755Z,13.10
2023-02-17T11:52:13.184Z,13.10
2023-02-17T11:54:57.669Z,13.10
2023-02-17T11:57:39.411Z,13.10
2023-02-17T12:00:19.000Z,13.20
2023-02-17T12:03:44.064Z,13.20
2023-02-17T12:06:19.254Z,13.30
2023-02-17T12:09:04.896Z,13.30
2023-02-17T12:11:42.002Z,14.20
2023-02-17T12:14:35.614Z,13.50
2023-02-17T12:17:15.308Z,13.40
2023-02-17T12:19:55.644Z,13.30
2023-02-17T12:22:31.865Z,11.20
2023-02-17T12:25:20.293Z,13.20
2023-02-17T12:28:11.701Z,13.20
2023-02-17T12:30:55.611Z,13.10
2023-02-17T12:33:46.157Z,13.00
2023-02-17T12:36:17.890Z,12.90
2023-02-17T12:38:51.596Z,12.90
2023-02-17T12:41:25.303Z,12.90
2023-02-17T12:43:57.972Z,12.80
2023-02-17T12:46:30.139Z,12.80
2023-02-17T12:49:07.664Z,12.80
2023-02-17T12:51:42.894Z,12.80
2023-02-17T12:54:19.820Z,12.80
2023-02-17T12:57:09.656Z,12.70
2023-02-17T12:59:40.246Z,12.70
2023-02-17T13:02:13.212Z,12.60
2023-02-17T13:04:45.655Z,12.60
2023-02-17T13:07:38.284Z,12.60
2023-02-17T13:10:08.730Z,12.60
2023-02-17T13:12:42.776Z,12.60
2023-02-17T13:15:47.055Z,12.60
2023-02-17T13:18:28.763Z,15.40
2023-02-17T13:21:01.677Z,12.50
2023-02-17T13:23:38.312Z,12.60
2023-02-17T13:26:32.476Z,12.60
2023-02-17T13:29:22.865Z,12.60
2023-02-17T13:31:55.714Z,12.60
2023-02-17T13:34:31.391Z,12.50
2023-02-17T13:37:05.574Z,12.50
2023-02-17T13:39:37.434Z,12.50
2023-02-17T13:42:24.299Z,12.50
2023-02-17T13:44:52.651Z,12.50
2023-02-17T13:47:37.629Z,12.50
2023-02-17T13:50:27.947Z,12.50
2023-02-17T13:52:58.147Z,12.40
2023-02-17T13:55:26.773Z,12.20
2023-02-17T13:57:57.896Z,11.90
2023-02-17T14:00:28.820Z,11.70
2023-02-17T14:02:59.656Z,11.50
2023-02-17T14:05:37.861Z,11.30
2023-02-17T14:08:15.963Z,11.20
2023-02-17T14:10:45.890Z,11.10
2023-02-17T14:13:15.305Z,11.00
2023-02-17T14:15:56.645Z,11.00
2023-02-17T14:18:37.907Z,10.90
2023-02-17T14:21:11.763Z,10.90
2023-02-17T14:23:52.865Z,10.90
2023-02-17T14:26:31.018Z,10.80
2023-02-17T14:29:03.653Z,10.90
2023-02-17T14:31:40.299Z,10.90
2023-02-17T14:34:14.154Z,10.90
2023-02-17T14:36:42.513Z,10.90
2023-02-17T14:39:16.380Z,10.90
2023-02-17T14:41:46.045Z,10.90
2023-02-17T14:44:14.150Z,10.80
2023-02-17T14:46:42.227Z,10.90
2023-02-17T14:49:10.452Z,10.80
2023-02-17T14:51:40.158Z,10.80
2023-02-17T14:54:17.475Z,10.90
2023-02-17T14:56:50.796Z,10.80
2023-02-17T14:59:18.909Z,10.90
2023-02-17T15:01:47.443Z,10.80
2023-02-17T15:04:15.484Z,10.90
2023-02-17T15:06:46.508Z,10.80
2023-02-17T15:09:19.202Z,10.80
2023-02-17T15:14:21.034Z,10.80
2023-02-17T15:16:49.720Z,10.80
2023-02-17T15:19:18.886Z,10.80
2023-02-17T15:21:50.069Z,10.80
2023-02-17T15:24:27.287Z,10.80
2023-02-17T15:29:27.765Z,10.80
2023-02-17T15:31:58.162Z,10.70
2023-02-17T15:34:30.877Z,10.70
2023-02-17T15:36:59.332Z,10.80
2023-02-17T15:39:29.567Z,10.80
2023-02-17T15:42:14.210Z,10.80
2023-02-17T15:44:46.565Z,10.90
2023-02-17T15:47:18.991Z,10.90
2023-02-17T15:52:17.247Z,10.80
2023-02-17T15:54:48.288Z,11.00
2023-02-17T15:57:24.026Z,11.00
2023-02-17T15:59:54.866Z,10.90
2023-02-17T16:02:26.189Z,10.90
2023-02-17T16:04:54.680Z,10.80
2023-02-17T16:09:53.123Z,10.80
2023-02-17T16:12:27.040Z,10.90
2023-02-17T16:14:56.045Z,10.90
2023-02-17T16:17:24.572Z,10.90
2023-02-17T16:19:52.884Z,10.90
2023-02-17T16:22:21.787Z,10.90
2023-02-17T16:27:23.983Z,11.00
2023-02-17T16:29:51.833Z,11.00
2023-02-17T16:32:19.964Z,11.00
2023-02-17T16:34:48.804Z,11.00
2023-02-17T16:37:18.583Z,11.00
2023-02-17T16:39:47.502Z,10.90
2023-02-17T16:42:17.345Z,10.90
2023-02-17T16:44:45.493Z,10.90
2023-02-17T16:47:22.359Z,10.80
2023-02-17T16:49:50.679Z,10.80
2023-02-17T16:52:25.814Z,10.90
2023-02-17T16:54:54.459Z,10.90
2023-02-17T16:57:25.029Z,11.00
2023-02-17T17:02:22.294Z,11.00
2023-02-17T17:04:50.455Z,11.00
2023-02-17T17:10:06.917Z,11.10
2023-02-17T17:12:36.568Z,11.20
2023-02-17T17:15:05.727Z,11.10
2023-02-17T17:17:41.422Z,11.20
2023-02-17T17:20:16.258Z,11.20
2023-02-17T17:22:46.633Z,11.30
2023-02-17T17:25:15.021Z,11.30
2023-02-17T17:27:45.877Z,11.30
2023-02-17T17:30:19.953Z,11.30
2023-02-17T17:32:48.455Z,11.30
2023-02-17T17:35:16.965Z,11.20
2023-02-17T17:37:45.045Z,11.30
2023-02-17T17:40:19.188Z,11.30
2023-02-17T17:42:48.912Z,11.30
2023-02-17T17:45:17.851Z,11.30
2023-02-17T17:47:46.477Z,11.30
2023-02-17T17:50:18.548Z,11.30
2023-02-17T17:52:47.123Z,11.30
2023-02-17T17:55:16.435Z,11.40
2023-02-17T17:57:44.481Z,11.30
2023-02-17T18:00:18.579Z,11.30
2023-02-17T18:02:46.532Z,11.30
2023-02-17T18:05:14.636Z,11.30
2023-02-17T18:07:43.750Z,11.30
2023-02-17T18:10:14.151Z,11.30
2023-02-17T18:12:45.355Z,11.20
2023-02-17T18:15:16.572Z,11.30
2023-02-17T18:17:44.862Z,11.30
2023-02-17T18:20:14.725Z,11.30
2023-02-17T18:22:42.768Z,11.20
2023-02-17T18:25:11.867Z,11.20
2023-02-17T18:27:43.135Z,11.00
2023-02-17T18:30:15.846Z,10.80
2023-02-17T18:32:44.530Z,10.50
2023-02-17T18:35:13.267Z,10.40
2023-02-17T18:37:41.835Z,10.30
2023-02-17T18:40:13.207Z,10.20
2023-02-17T18:42:42.249Z,10.20
2023-02-17T18:45:11.141Z,10.10
2023-02-17T18:47:40.548Z,10.10
2023-02-17T18:50:11.405Z,10.10
2023-02-17T18:52:40.356Z,10.10
2023-02-17T18:55:09.585Z,10.10
2023-02-17T18:57:38.035Z,10.10
2023-02-17T19:00:09.482Z,10.10
2023-02-17T19:02:38.207Z,10.10
2023-02-17T19:05:10.070Z,10.00
2023-02-17T19:07:38.301Z,9.80
2023-02-17T19:10:08.069Z,9.70
2023-02-17T19:12:37.826Z,9.50
2023-02-17T19:15:07.601Z,9.30
2023-02-17T19:17:35.997Z,9.10
2023-02-17T19:20:04.931Z,8.80
2023-02-17T19:22:36.680Z,8.80
2023-02-17T19:25:06.005Z,8.70
2023-02-17T19:27:34.342Z,8.60
2023-02-17T19:30:02.425Z,8.50
2023-02-17T19:32:30.673Z,8.50
2023-02-17T19:39:59.398Z,8.50
2023-02-17T19:44:56.184Z,8.50
2023-02-17T19:47:24.325Z,8.40
2023-02-17T19:49:52.430Z,8.40
2023-02-17T19:52:21.127Z,8.50
2023-02-17T19:54:50.772Z,8.50
2023-02-17T19:57:21.069Z,8.50
2023-02-17T19:59:49.261Z,8.50
2023-02-17T20:02:17.418Z,8.50
2023-02-17T20:04:46.292Z,8.50
2023-02-17T20:07:14.592Z,8.50
2023-02-17T20:12:11.174Z,8.50
2023-02-17T20:14:42.108Z,8.40
2023-02-17T20:17:10.222Z,8.30
2023-02-17T20:19:39.395Z,8.30
2023-02-17T20:22:08.548Z,8.20
2023-02-17T20:24:40.647Z,8.10
2023-02-17T20:27:08.631Z,8.10
2023-02-17T20:29:37.202Z,7.90
2023-02-17T20:32:07.050Z,7.80
2023-02-17T20:34:37.441Z,7.70
2023-02-17T20:37:06.443Z,7.60
2023-02-17T20:39:36.499Z,7.50
2023-02-17T20:42:05.325Z,7.50
2023-02-17T20:44:33.604Z,7.30
2023-02-17T20:47:02.758Z,7.30
2023-02-17T20:49:33.894Z,7.30
2023-02-17T20:52:01.822Z,7.30
2023-02-17T20:54:29.819Z,7.30
2023-02-17T20:57:00.950Z,7.30
2023-02-17T20:59:29.260Z,7.20
2023-02-17T21:01:57.308Z,7.20
2023-02-17T21:04:26.187Z,7.10
2023-02-17T21:06:55.719Z,7.10
2023-02-17T21:09:24.037Z,7.10
2023-02-17T21:11:52.041Z,7.10
2023-02-17T21:14:20.065Z,7.10
2023-02-17T21:19:16.702Z,7.10
2023-02-17T21:21:44.685Z,7.20
2023-02-17T21:24:14.086Z,6.80
2023-02-17T22:20:45.713Z,7.60
2023-02-17T22:23:13.830Z,7.40
2023-02-17T22:33:10.950Z,7.20
2023-02-17T22:38:09.020Z,7.00
2023-02-17T22:40:40.094Z,6.90
2023-02-17T22:48:06.463Z,6.70
2023-02-17T22:58:02.675Z,6.50
2023-02-17T23:00:30.821Z,6.50
2023-02-17T23:02:58.994Z,6.40
2023-02-17T23:05:27.288Z,6.50
2023-02-17T23:07:55.379Z,6.50
2023-02-17T23:10:23.620Z,6.40
2023-02-17T23:12:53.620Z,6.30
2023-02-17T23:15:39.168Z,6.20
2023-02-17T23:18:09.015Z,6.10
2023-02-17T23:20:39.525Z,6.00
2023-02-17T23:25:39.170Z,6.20
2023-02-17T23:28:10.930Z,6.10
2023-02-17T23:35:41.235Z,6.20
2023-02-17T23:40:39.174Z,6.10
2023-02-17T23:43:09.949Z,6.00
2023-02-17T23:45:39.476Z,5.80
2023-02-17T23:48:07.806Z,5.80
2023-02-17T23:50:35.941Z,5.70
2023-02-17T23:55:32.516Z,5.50
2023-02-17T23:58:01.051Z,5.40
